createdAt,value
2022-11-21T00:01:28.837Z,4.30
2022-11-21T00:03:55.422Z,4.40
2022-11-21T00:06:22.019Z,4.40
2022-11-21T00:08:48.597Z,4.40
2022-11-21T00:11:15.739Z,4.40
2022-11-21T00:13:43.171Z,4.40
2022-11-21T00:16:12.732Z,4.40
2022-11-21T00:18:39.477Z,4.50
2022-11-21T00:21:15.453Z,4.50
2022-11-21T00:23:42.964Z,4.50
2022-11-21T00:26:11.248Z,4.50
2022-11-21T00:28:38.314Z,4.50
2022-11-21T00:31:05.915Z,4.50
2022-11-21T00:33:34.829Z,4.50
2022-11-21T00:36:09.176Z,4.50
2022-11-21T00:38:36.764Z,4.60
2022-11-21T00:41:03.708Z,4.60
2022-11-21T00:43:30.356Z,4.60
2022-11-21T00:45:56.909Z,4.60
2022-11-21T00:48:23.482Z,4.60
2022-11-21T00:50:50.161Z,4.60
2022-11-21T00:53:16.771Z,4.60
2022-11-21T00:55:43.359Z,4.60
2022-11-21T00:58:09.922Z,4.60
2022-11-21T01:00:36.582Z,4.60
2022-11-21T01:03:03.222Z,4.60
2022-11-21T01:05:32.616Z,4.60
2022-11-21T01:07:59.240Z,4.60
2022-11-21T01:10:25.832Z,4.60
2022-11-21T01:12:52.388Z,4.50
2022-11-21T01:15:18.957Z,4.50
2022-11-21T01:17:45.537Z,4.50
2022-11-21T01:20:12.225Z,4.50
2022-11-21T01:22:38.797Z,4.50
2022-11-21T01:25:05.824Z,4.50
2022-11-21T01:27:32.456Z,4.50
2022-11-21T01:29:59.085Z,4.50
2022-11-21T01:32:25.696Z,4.50
2022-11-21T01:34:52.262Z,4.50
2022-11-21T01:37:18.832Z,4.50
2022-11-21T01:39:45.396Z,4.50
2022-11-21T01:42:13.393Z,4.60
2022-11-21T01:44:47.765Z,4.60
2022-11-21T01:47:14.341Z,4.60
2022-11-21T01:49:41.864Z,4.60
2022-11-21T01:52:20.684Z,4.60
2022-11-21T01:54:47.230Z,4.60
2022-11-21T01:57:21.861Z,4.60
2022-11-21T01:59:54.207Z,4.70
2022-11-21T02:02:25.131Z,4.60
2022-11-21T02:04:53.330Z,4.70
2022-11-21T02:07:22.774Z,4.60
2022-11-21T02:09:55.849Z,4.60
2022-11-21T02:12:37.780Z,4.60
2022-11-21T02:15:04.702Z,4.70
2022-11-21T02:17:32.153Z,4.70
2022-11-21T02:20:01.716Z,4.70
2022-11-21T02:22:33.772Z,4.70
2022-11-21T02:25:04.080Z,4.70
2022-11-21T02:27:31.045Z,4.70
2022-11-21T02:29:57.953Z,4.70
2022-11-21T02:32:31.957Z,4.70
2022-11-21T02:34:58.529Z,4.70
2022-11-21T02:37:25.183Z,4.70
2022-11-21T02:39:51.964Z,4.70
2022-11-21T02:42:23.984Z,4.70
2022-11-21T02:45:02.671Z,4.70
2022-11-21T02:47:30.098Z,4.70
2022-11-21T02:49:59.989Z,4.70
2022-11-21T02:52:26.536Z,4.70
2022-11-21T02:54:53.100Z,4.70
2022-11-21T02:57:19.696Z,4.70
2022-11-21T02:59:46.302Z,4.70
2022-11-21T03:02:12.881Z,4.70
2022-11-21T03:04:39.633Z,4.70
2022-11-21T03:07:06.284Z,4.70
2022-11-21T03:09:32.864Z,4.70
2022-11-21T03:11:59.455Z,4.70
2022-11-21T03:14:26.389Z,4.60
2022-11-21T03:16:53.107Z,4.60
2022-11-21T03:19:19.692Z,4.60
2022-11-21T03:21:46.269Z,4.60
2022-11-21T03:24:12.896Z,4.60
2022-11-21T03:26:39.474Z,4.60
2022-11-21T03:29:06.093Z,4.60
2022-11-21T03:31:32.696Z,4.70
2022-11-21T03:33:59.386Z,4.70
2022-11-21T03:36:25.956Z,4.70
2022-11-21T03:38:54.364Z,4.70
2022-11-21T03:41:20.924Z,4.70
2022-11-21T03:43:47.487Z,4.70
2022-11-21T03:46:14.052Z,4.70
2022-11-21T03:48:40.612Z,4.80
2022-11-21T03:51:07.189Z,4.80
2022-11-21T03:53:33.731Z,4.80
2022-11-21T03:56:00.304Z,4.80
2022-11-21T03:58:26.909Z,4.80
2022-11-21T04:00:53.476Z,4.90
2022-11-21T04:03:20.049Z,4.80
2022-11-21T04:05:46.603Z,4.80
2022-11-21T04:08:13.159Z,4.80
2022-11-21T04:10:39.843Z,4.80
2022-11-21T04:13:06.390Z,4.80
2022-11-21T04:15:32.952Z,4.80
2022-11-21T04:17:59.507Z,4.70
2022-11-21T04:20:26.059Z,4.70
2022-11-21T04:22:52.632Z,4.60
2022-11-21T04:25:19.204Z,4.50
2022-11-21T04:27:45.743Z,4.50
2022-11-21T04:30:12.445Z,4.50
2022-11-21T04:32:39.033Z,4.50
2022-11-21T04:35:06.150Z,4.50
2022-11-21T04:37:32.735Z,4.40
2022-11-21T04:39:59.334Z,4.40
2022-11-21T04:42:25.875Z,4.40
2022-11-21T04:44:52.435Z,4.40
2022-11-21T04:47:19.010Z,4.40
2022-11-21T04:49:45.581Z,4.40
2022-11-21T04:52:12.143Z,4.40
2022-11-21T04:54:38.739Z,4.40
2022-11-21T04:57:05.304Z,4.40
2022-11-21T04:59:31.885Z,4.40
2022-11-21T05:01:58.448Z,4.40
2022-11-21T05:04:25.140Z,4.40
2022-11-21T05:06:51.872Z,4.40
2022-11-21T05:09:18.441Z,4.40
2022-11-21T05:11:45.054Z,4.40
2022-11-21T05:14:11.670Z,4.40
2022-11-21T05:16:38.310Z,4.40
2022-11-21T05:19:04.884Z,4.40
2022-11-21T05:21:31.468Z,4.40
2022-11-21T05:23:58.060Z,4.40
2022-11-21T05:26:24.640Z,4.30
2022-11-21T05:28:51.225Z,4.30
2022-11-21T05:31:17.793Z,4.20
2022-11-21T05:33:44.363Z,4.20
2022-11-21T05:36:10.928Z,4.10
2022-11-21T05:38:37.507Z,4.10
2022-11-21T05:41:04.086Z,4.10
2022-11-21T05:43:30.648Z,4.10
2022-11-21T05:45:57.228Z,4.10
2022-11-21T05:48:23.896Z,4.20
2022-11-21T05:50:50.484Z,4.20
2022-11-21T05:53:17.308Z,4.20
2022-11-21T05:55:44.304Z,4.20
2022-11-21T05:58:11.047Z,4.20
2022-11-21T06:00:38.129Z,4.20
2022-11-21T06:03:05.852Z,4.20
2022-11-21T06:05:32.433Z,4.20
2022-11-21T06:07:58.997Z,4.20
2022-11-21T06:10:25.588Z,4.10
2022-11-21T06:12:52.132Z,4.10
2022-11-21T06:15:18.729Z,4.20
2022-11-21T06:17:45.281Z,4.20
2022-11-21T06:20:11.967Z,4.10
2022-11-21T06:22:38.524Z,4.20
2022-11-21T06:25:05.427Z,4.20
2022-11-21T06:27:31.985Z,4.20
2022-11-21T06:29:58.581Z,4.20
2022-11-21T06:32:25.213Z,4.20
2022-11-21T06:34:51.776Z,4.30
2022-11-21T06:37:18.374Z,4.30
2022-11-21T06:39:44.960Z,4.30
2022-11-21T06:42:11.527Z,4.20
2022-11-21T06:44:38.092Z,4.20
2022-11-21T06:47:04.712Z,4.20
2022-11-21T06:49:31.293Z,4.20
2022-11-21T06:51:57.889Z,4.20
2022-11-21T06:54:24.455Z,4.20
2022-11-21T06:56:52.316Z,4.20
2022-11-21T06:59:18.885Z,4.10
2022-11-21T07:01:45.493Z,4.20
2022-11-21T07:04:12.081Z,4.20
2022-11-21T07:06:38.632Z,4.20
2022-11-21T07:09:31.589Z,4.20
2022-11-21T07:11:51.812Z,4.20
2022-11-21T07:14:18.393Z,4.20
2022-11-21T07:16:44.957Z,4.20
2022-11-21T07:19:11.681Z,4.20
2022-11-21T07:21:38.245Z,4.40
2022-11-21T07:24:05.476Z,4.60
2022-11-21T07:26:32.144Z,4.90
2022-11-21T07:28:59.003Z,5.10
2022-11-21T07:31:25.567Z,5.00
2022-11-21T07:33:52.124Z,4.80
2022-11-21T07:36:18.708Z,4.60
2022-11-21T07:38:46.563Z,4.50
2022-11-21T07:41:13.214Z,4.60
2022-11-21T07:43:39.874Z,4.60
2022-11-21T07:46:06.450Z,4.60
2022-11-21T07:48:33.030Z,4.60
2022-11-21T07:51:02.469Z,4.60
2022-11-21T07:53:29.018Z,4.60
2022-11-21T07:55:58.938Z,4.70
2022-11-21T07:58:25.624Z,4.70
2022-11-21T08:00:52.222Z,4.70
2022-11-21T08:03:19.912Z,4.70
2022-11-21T08:05:46.466Z,4.80
2022-11-21T08:08:14.104Z,4.80
2022-11-21T08:10:43.689Z,4.80
2022-11-21T08:13:10.870Z,4.80
2022-11-21T08:15:38.106Z,4.80
2022-11-21T08:18:13.124Z,4.90
2022-11-21T08:20:40.277Z,4.90
2022-11-21T08:23:07.135Z,5.00
2022-11-21T08:25:43.538Z,5.00
2022-11-21T08:28:11.538Z,5.20
2022-11-21T08:30:39.688Z,5.30
2022-11-21T08:33:06.949Z,5.40
2022-11-21T08:35:36.271Z,5.40
2022-11-21T08:38:02.862Z,5.40
2022-11-21T08:40:31.502Z,5.30
2022-11-21T08:43:06.558Z,5.30
2022-11-21T08:45:34.426Z,5.30
2022-11-21T08:48:01.367Z,5.30
2022-11-21T08:50:28.157Z,5.20
2022-11-21T08:53:03.973Z,5.20
2022-11-21T08:55:30.953Z,5.20
2022-11-21T08:57:57.986Z,5.20
2022-11-21T09:00:24.804Z,5.20
2022-11-21T09:02:51.477Z,5.20
2022-11-21T09:05:18.053Z,5.30
2022-11-21T09:07:44.731Z,5.40
2022-11-21T09:10:11.486Z,5.40
2022-11-21T09:12:38.141Z,5.50
2022-11-21T09:15:05.459Z,5.50
2022-11-21T09:17:32.021Z,5.50
2022-11-21T09:19:58.796Z,5.50
2022-11-21T09:22:25.644Z,5.50
2022-11-21T09:24:52.287Z,5.50
2022-11-21T09:27:18.857Z,5.60
2022-11-21T09:29:51.077Z,5.60
2022-11-21T09:32:20.336Z,5.60
2022-11-21T09:34:46.924Z,5.70
2022-11-21T09:37:13.521Z,5.80
2022-11-21T09:39:40.088Z,5.80
2022-11-21T09:42:26.513Z,6.00
2022-11-21T09:44:58.619Z,6.00
2022-11-21T09:47:35.081Z,6.10
2022-11-21T09:50:06.560Z,6.20
2022-11-21T09:53:14.456Z,6.20
2022-11-21T09:55:55.613Z,6.30
2022-11-21T09:58:48.605Z,6.30
2022-11-21T10:01:17.114Z,6.40
2022-11-21T10:03:50.495Z,6.50
2022-11-21T10:06:25.913Z,6.50
2022-11-21T10:08:52.460Z,6.50
2022-11-21T10:11:54.871Z,6.60
2022-11-21T10:14:33.595Z,6.60
2022-11-21T10:17:15.894Z,6.70
2022-11-21T10:19:50.837Z,6.60
2022-11-21T10:22:31.318Z,6.60
2022-11-21T10:25:13.646Z,6.60
2022-11-21T10:28:13.399Z,6.70
2022-11-21T10:30:45.425Z,6.70
2022-11-21T10:33:26.329Z,6.80
2022-11-21T10:36:07.026Z,6.90
2022-11-21T10:38:40.266Z,7.00
2022-11-21T10:41:22.037Z,7.10
2022-11-21T10:44:04.137Z,7.20
2022-11-21T10:46:30.700Z,7.30
2022-11-21T10:49:01.906Z,7.40
2022-11-21T10:51:37.427Z,7.30
2022-11-21T10:54:08.034Z,7.20
2022-11-21T10:56:35.964Z,7.20
2022-11-21T11:02:13.670Z,7.30
2022-11-21T11:04:47.321Z,7.50
2022-11-21T11:07:28.095Z,7.80
2022-11-21T11:10:16.350Z,8.20
2022-11-21T11:12:43.017Z,8.30
2022-11-21T11:15:21.346Z,8.50
2022-11-21T11:18:02.753Z,8.70
2022-11-21T11:20:41.354Z,8.70
2022-11-21T11:23:15.745Z,8.90
2022-11-21T11:25:54.920Z,9.30
2022-11-21T11:28:21.641Z,9.40
2022-11-21T11:30:49.860Z,9.80
2022-11-21T11:33:54.534Z,9.80
2022-11-21T11:36:36.724Z,10.20
2022-11-21T11:39:32.263Z,10.40
2022-11-21T11:42:16.714Z,10.40
2022-11-21T11:44:43.592Z,10.60
2022-11-21T11:47:22.752Z,10.70
2022-11-21T11:49:55.442Z,10.70
2022-11-21T11:52:25.256Z,10.70
2022-11-21T11:55:06.584Z,10.70
2022-11-21T11:57:36.742Z,10.70
2022-11-21T12:00:25.525Z,10.50
2022-11-21T12:02:56.979Z,10.60
2022-11-21T12:05:28.752Z,10.80
2022-11-21T12:08:41.231Z,10.70
2022-11-21T12:11:38.912Z,10.90
2022-11-21T12:14:20.149Z,11.10
2022-11-21T12:16:47.034Z,11.30
2022-11-21T12:19:16.944Z,11.20
2022-11-21T12:21:43.538Z,11.30
2022-11-21T12:24:10.950Z,11.10
2022-11-21T12:27:06.066Z,11.10
2022-11-21T12:29:51.267Z,10.70
2022-11-21T12:32:26.904Z,10.40
2022-11-21T12:35:32.216Z,10.20
2022-11-21T12:38:05.558Z,10.20
2022-11-21T12:40:44.591Z,10.10
2022-11-21T12:43:32.495Z,9.90
2022-11-21T12:46:22.273Z,9.90
2022-11-21T12:49:09.094Z,9.90
2022-11-21T12:52:03.743Z,9.70
2022-11-21T12:54:38.402Z,9.20
2022-11-21T12:57:15.938Z,8.90
2022-11-21T13:00:00.435Z,8.90
2022-11-21T13:03:03.266Z,8.80
2022-11-21T13:05:39.636Z,8.80
2022-11-21T13:08:10.188Z,8.80
2022-11-21T13:10:39.970Z,8.80
2022-11-21T13:13:21.643Z,8.90
2022-11-21T13:16:00.458Z,8.80
2022-11-21T13:18:40.292Z,8.80
2022-11-21T13:21:43.521Z,8.70
2022-11-21T13:24:10.555Z,8.70
2022-11-21T13:26:37.093Z,8.60
2022-11-21T13:29:16.180Z,8.60
2022-11-21T13:31:43.077Z,8.60
2022-11-21T13:34:35.132Z,8.60
2022-11-21T13:37:01.909Z,8.60
2022-11-21T13:39:34.097Z,8.50
2022-11-21T13:42:05.687Z,8.50
2022-11-21T13:44:32.258Z,8.50
2022-11-21T13:47:38.881Z,8.50
2022-11-21T13:50:24.438Z,8.50
2022-11-21T13:53:06.005Z,8.40
2022-11-21T13:55:57.988Z,8.40
2022-11-21T13:58:43.300Z,8.30
2022-11-21T14:01:51.670Z,8.30
2022-11-21T14:05:09.670Z,8.20
2022-11-21T14:07:37.759Z,8.10
2022-11-21T14:10:17.686Z,8.20
2022-11-21T14:12:48.851Z,8.20
2022-11-21T14:15:38.583Z,8.30
2022-11-21T14:18:05.647Z,8.20
2022-11-21T14:20:48.530Z,8.20
2022-11-21T14:23:18.526Z,8.20
2022-11-21T14:26:03.332Z,8.20
2022-11-21T14:28:34.376Z,8.10
2022-11-21T14:31:09.254Z,8.10
2022-11-21T14:33:37.486Z,8.10
2022-11-21T14:36:09.857Z,8.00
2022-11-21T14:38:42.584Z,7.80
2022-11-21T14:41:18.269Z,7.80
2022-11-21T14:43:44.838Z,7.70
2022-11-21T14:46:20.809Z,7.80
2022-11-21T14:48:47.394Z,7.70
2022-11-21T14:51:19.653Z,7.60
2022-11-21T14:53:48.342Z,7.60
2022-11-21T14:56:29.189Z,7.60
2022-11-21T14:58:57.848Z,7.50
2022-11-21T15:01:30.159Z,7.40
2022-11-21T15:04:01.718Z,7.30
2022-11-21T15:06:29.604Z,7.20
2022-11-21T15:10:05.711Z,7.20
2022-11-21T15:12:05.234Z,7.20
2022-11-21T15:14:37.937Z,7.20
2022-11-21T15:17:08.968Z,7.20
2022-11-21T15:19:35.576Z,7.10
2022-11-21T15:22:03.380Z,7.10
2022-11-21T15:24:43.401Z,7.00
2022-11-21T15:27:28.479Z,6.90
2022-11-21T15:30:30.533Z,6.80
2022-11-21T15:33:13.460Z,6.70
2022-11-21T15:35:42.819Z,6.70
2022-11-21T15:38:20.431Z,6.60
2022-11-21T15:40:56.167Z,6.50
2022-11-21T15:43:46.003Z,6.40
2022-11-21T15:46:29.101Z,6.30
2022-11-21T15:49:30.896Z,6.20
2022-11-21T15:54:37.214Z,6.00
2022-11-21T15:57:03.839Z,5.90
2022-11-21T15:57:12.904Z,6.10
2022-11-21T15:59:30.747Z,5.90
2022-11-21T16:01:57.698Z,5.90
2022-11-21T16:04:26.188Z,5.80
2022-11-21T16:06:54.105Z,5.70
2022-11-21T16:09:20.700Z,5.70
2022-11-21T16:11:47.404Z,5.70
2022-11-21T16:14:15.961Z,5.70
2022-11-21T16:16:43.866Z,5.60
2022-11-21T16:19:14.597Z,5.40
2022-11-21T16:21:41.399Z,5.30
2022-11-21T16:24:08.326Z,5.30
2022-11-21T16:26:35.088Z,5.20
2022-11-21T16:29:01.984Z,5.20
2022-11-21T16:31:30.713Z,5.10
2022-11-21T16:33:57.677Z,5.10
2022-11-21T16:36:29.511Z,5.00
2022-11-21T16:38:59.265Z,5.00
2022-11-21T16:41:29.100Z,5.00
2022-11-21T16:43:56.077Z,4.90
2022-11-21T16:46:24.765Z,5.00
2022-11-21T16:48:59.250Z,5.00
2022-11-21T16:51:25.923Z,4.90
2022-11-21T16:53:52.516Z,4.90
2022-11-21T16:56:19.116Z,4.90
2022-11-21T16:58:47.177Z,4.90
2022-11-21T17:01:16.871Z,4.90
2022-11-21T17:03:45.071Z,4.90
2022-11-21T17:06:13.509Z,4.80
2022-11-21T17:08:40.372Z,4.80
2022-11-21T17:11:13.135Z,4.90
2022-11-21T17:13:40.060Z,4.90
2022-11-21T17:16:11.936Z,4.90
2022-11-21T17:18:39.184Z,4.90
2022-11-21T17:21:07.137Z,4.80
2022-11-21T17:23:35.054Z,4.90
2022-11-21T17:26:10.044Z,4.90
2022-11-21T17:28:39.785Z,4.90
2022-11-21T17:31:15.542Z,4.80
2022-11-21T17:33:43.432Z,4.90
2022-11-21T17:36:14.537Z,4.90
2022-11-21T17:38:41.273Z,4.90
2022-11-21T17:41:10.845Z,4.90
2022-11-21T17:43:37.881Z,4.90
2022-11-21T17:46:09.934Z,4.90
2022-11-21T17:48:37.841Z,4.90
2022-11-21T17:51:07.236Z,4.80
2022-11-21T17:53:36.201Z,4.90
2022-11-21T17:56:05.543Z,4.90
2022-11-21T17:58:33.188Z,5.00
2022-11-21T18:01:04.722Z,5.00
2022-11-21T18:03:32.044Z,5.00
2022-11-21T18:06:06.020Z,5.10
2022-11-21T18:08:38.544Z,5.10
2022-11-21T18:11:06.868Z,4.90
2022-11-21T18:13:34.551Z,4.80
2022-11-21T18:16:03.915Z,4.90
2022-11-21T18:18:31.852Z,4.80
2022-11-21T18:21:13.332Z,5.00
2022-11-21T18:23:40.192Z,5.00
2022-11-21T18:26:11.193Z,4.80
2022-11-21T18:28:38.192Z,4.70
2022-11-21T18:31:08.602Z,4.80
2022-11-21T18:33:36.337Z,4.70
2022-11-21T18:36:04.603Z,4.90
2022-11-21T18:38:48.244Z,4.90
2022-11-21T18:41:17.243Z,4.90
2022-11-21T18:43:48.500Z,4.70
2022-11-21T18:46:15.613Z,4.80
2022-11-21T18:49:01.300Z,4.90
2022-11-21T18:51:30.447Z,4.70
2022-11-21T18:53:59.313Z,4.80
2022-11-21T18:56:26.519Z,4.70
2022-11-21T18:58:58.278Z,4.70
2022-11-21T19:01:27.924Z,4.70
2022-11-21T19:03:55.451Z,4.80
2022-11-21T19:06:24.472Z,4.70
2022-11-21T19:08:52.636Z,4.70
2022-11-21T19:11:20.553Z,4.60
2022-11-21T19:13:48.337Z,4.60
2022-11-21T19:16:17.223Z,4.60
2022-11-21T19:18:48.478Z,4.60
2022-11-21T19:21:21.941Z,4.70
2022-11-21T19:23:48.516Z,4.70
2022-11-21T19:26:17.592Z,4.70
2022-11-21T19:28:45.382Z,4.80
2022-11-21T19:31:14.349Z,4.60
2022-11-21T19:33:41.577Z,4.50
2022-11-21T19:36:13.358Z,4.50
2022-11-21T19:38:39.924Z,4.50
2022-11-21T19:41:10.594Z,4.50
2022-11-21T19:43:37.207Z,4.50
2022-11-21T19:46:04.448Z,4.60
2022-11-21T19:48:31.267Z,4.60
2022-11-21T19:50:59.099Z,4.60
2022-11-21T19:53:26.814Z,4.60
2022-11-21T19:55:53.716Z,4.60
2022-11-21T19:58:20.738Z,4.60
2022-11-21T20:00:47.309Z,4.60
2022-11-21T20:03:13.886Z,4.60
2022-11-21T20:05:40.461Z,4.60
2022-11-21T20:08:16.391Z,4.50
2022-11-21T20:10:44.163Z,4.50
2022-11-21T20:13:10.774Z,4.60
2022-11-21T20:15:38.307Z,4.50
2022-11-21T20:18:04.931Z,4.50
2022-11-21T20:20:31.494Z,4.50
2022-11-21T20:22:58.044Z,4.40
2022-11-21T20:25:24.628Z,4.40
2022-11-21T20:27:51.202Z,4.50
2022-11-21T20:30:17.821Z,4.50
2022-11-21T20:32:44.380Z,4.50
2022-11-21T20:35:10.947Z,4.40
2022-11-21T20:37:37.525Z,4.50
2022-11-21T20:40:04.364Z,4.40
2022-11-21T20:42:30.944Z,4.50
2022-11-21T20:45:54.419Z,4.60
2022-11-21T20:47:44.053Z,4.60
2022-11-21T20:50:10.621Z,4.60
2022-11-21T20:55:23.783Z,4.40
2022-11-21T20:57:50.368Z,4.50
2022-11-21T21:00:17.548Z,4.60
2022-11-21T21:02:45.612Z,4.70
2022-11-21T21:05:12.202Z,4.70
2022-11-21T21:07:38.839Z,4.50
2022-11-21T21:10:06.163Z,4.50
2022-11-21T21:12:32.725Z,4.60
2022-11-21T21:14:59.310Z,4.50
2022-11-21T21:17:25.889Z,4.60
2022-11-21T21:19:52.521Z,4.60
2022-11-21T21:22:19.091Z,4.60
2022-11-21T21:24:45.648Z,4.70
2022-11-21T21:27:12.224Z,4.60
2022-11-21T21:29:38.800Z,4.60
2022-11-21T21:32:05.619Z,4.50
2022-11-21T21:34:32.761Z,4.60
2022-11-21T21:36:59.601Z,4.50
2022-11-21T21:39:26.236Z,4.40
2022-11-21T21:41:53.085Z,4.40
2022-11-21T21:44:19.649Z,4.50
2022-11-21T21:46:46.358Z,4.40
2022-11-21T21:49:12.973Z,4.40
2022-11-21T21:51:39.843Z,4.60
2022-11-21T21:54:06.527Z,4.50
2022-11-21T21:56:33.437Z,4.50
2022-11-21T21:59:00.021Z,4.50
2022-11-21T22:01:29.077Z,4.40
2022-11-21T22:03:57.773Z,4.30
2022-11-21T22:06:24.992Z,4.30
2022-11-21T22:08:52.220Z,4.40
2022-11-21T22:11:21.174Z,4.30
2022-11-21T22:14:10.909Z,4.20
2022-11-21T22:16:37.646Z,4.10
2022-11-21T22:19:04.254Z,4.20
2022-11-21T22:21:33.143Z,4.10
2022-11-21T22:26:47.919Z,3.80
2022-11-21T22:29:14.530Z,3.80
2022-11-21T22:31:41.104Z,3.80
2022-11-21T22:34:11.481Z,3.70
2022-11-21T22:36:38.053Z,3.80
2022-11-21T22:39:04.646Z,3.70
2022-11-21T22:41:31.229Z,3.70
2022-11-21T22:43:59.287Z,3.80
2022-11-21T22:46:27.666Z,3.80
2022-11-21T22:48:54.650Z,3.80
2022-11-21T22:51:23.304Z,3.90
2022-11-21T22:53:50.511Z,4.00
2022-11-21T22:56:19.565Z,4.00
2022-11-21T22:58:46.920Z,4.00
2022-11-21T23:01:16.005Z,3.90
2022-11-21T23:03:43.737Z,4.00
2022-11-21T23:06:15.893Z,4.10
2022-11-21T23:08:42.896Z,3.90
2022-11-21T23:11:10.652Z,3.90
2022-11-21T23:13:38.531Z,3.90
2022-11-21T23:16:06.273Z,3.80
2022-11-21T23:18:33.529Z,3.90
2022-11-21T23:21:00.505Z,3.90
2022-11-21T23:23:27.655Z,3.90
2022-11-21T23:25:54.546Z,3.90
2022-11-21T23:28:21.559Z,3.90
2022-11-21T23:30:49.721Z,3.80
2022-11-21T23:33:16.860Z,3.80
2022-11-21T23:35:44.675Z,3.80
2022-11-21T23:38:11.799Z,3.80
2022-11-21T23:40:38.356Z,3.90
2022-11-21T23:43:05.097Z,3.90
2022-11-21T23:45:32.085Z,3.90
2022-11-21T23:47:58.645Z,3.90
2022-11-21T23:50:25.231Z,3.90
2022-11-21T23:52:51.853Z,3.90
2022-11-21T23:55:18.481Z,3.90
2022-11-21T23:57:48.991Z,3.90
